createdAt,value
2023-01-10T00:00:26.534Z,100.00
2023-01-10T00:03:12.286Z,100.00
2023-01-10T00:05:57.394Z,100.00
2023-01-10T00:08:42.881Z,100.00
2023-01-10T00:11:27.822Z,100.00
2023-01-10T00:14:12.818Z,100.00
2023-01-10T00:16:58.057Z,100.00
2023-01-10T00:19:43.387Z,100.00
2023-01-10T00:22:28.872Z,100.00
2023-01-10T00:25:14.240Z,100.00
2023-01-10T00:27:59.878Z,100.00
2023-01-10T00:30:50.467Z,100.00
2023-01-10T00:33:36.870Z,100.00
2023-01-10T00:36:22.148Z,100.00
2023-01-10T00:39:07.008Z,100.00
2023-01-10T00:41:52.382Z,100.00
2023-01-10T00:44:37.817Z,100.00
2023-01-10T00:47:23.152Z,100.00
2023-01-10T00:50:09.114Z,100.00
2023-01-10T00:52:54.430Z,100.00
2023-01-10T00:55:39.387Z,100.00
2023-01-10T00:58:24.826Z,100.00
2023-01-10T01:01:09.734Z,100.00
2023-01-10T01:03:55.152Z,100.00
2023-01-10T01:06:40.464Z,100.00
2023-01-10T01:09:25.897Z,100.00
2023-01-10T01:12:10.749Z,100.00
2023-01-10T01:14:55.936Z,100.00
2023-01-10T01:17:41.215Z,100.00
2023-01-10T01:20:26.052Z,100.00
2023-01-10T01:23:11.558Z,100.00
2023-01-10T01:25:57.335Z,100.00
2023-01-10T01:28:42.253Z,100.00
2023-01-10T01:31:27.572Z,100.00
2023-01-10T01:34:12.942Z,100.00
2023-01-10T01:36:58.036Z,100.00
2023-01-10T01:39:43.373Z,100.00
2023-01-10T01:42:34.642Z,100.00
2023-01-10T01:45:22.804Z,100.00
2023-01-10T01:48:13.221Z,100.00
2023-01-10T01:51:16.594Z,100.00
2023-01-10T01:54:09.547Z,100.00
2023-01-10T01:57:01.223Z,100.00
2023-01-10T01:59:49.650Z,100.00
2023-01-10T02:02:41.422Z,100.00
2023-01-10T02:05:32.190Z,100.00
2023-01-10T02:08:17.596Z,100.00
2023-01-10T02:11:09.439Z,100.00
2023-01-10T02:13:54.881Z,100.00
2023-01-10T02:16:40.499Z,100.00
2023-01-10T02:19:49.536Z,100.00
2023-01-10T02:23:13.613Z,100.00
2023-01-10T02:25:59.002Z,100.00
2023-01-10T02:29:06.419Z,100.00
2023-01-10T02:32:07.710Z,100.00
2023-01-10T02:35:32.121Z,100.00
2023-01-10T02:38:41.529Z,100.00
2023-01-10T02:41:33.017Z,100.00
2023-01-10T02:44:24.633Z,100.00
2023-01-10T02:47:09.987Z,100.00
2023-01-10T02:49:55.001Z,100.00
2023-01-10T02:52:40.355Z,100.00
2023-01-10T02:55:50.744Z,100.00
2023-01-10T02:59:06.432Z,100.00
2023-01-10T03:01:59.870Z,100.00
2023-01-10T03:04:54.336Z,100.00
2023-01-10T03:08:01.226Z,100.00
2023-01-10T03:10:56.383Z,100.00
2023-01-10T03:13:49.863Z,100.00
2023-01-10T03:16:37.796Z,100.00
2023-01-10T03:22:39.295Z,100.00
2023-01-10T03:25:30.807Z,100.00
2023-01-10T03:28:43.955Z,100.00
2023-01-10T03:31:38.149Z,100.00
2023-01-10T03:34:24.855Z,100.00
2023-01-10T03:37:32.093Z,100.00
2023-01-10T03:40:33.031Z,100.00
2023-01-10T03:43:26.887Z,100.00
2023-01-10T03:46:47.943Z,100.00
2023-01-10T03:49:35.536Z,100.00
2023-01-10T03:52:21.789Z,100.00
2023-01-10T03:55:09.727Z,100.00
2023-01-10T03:57:54.962Z,100.00
2023-01-10T04:00:40.277Z,100.00
2023-01-10T04:03:25.615Z,100.00
2023-01-10T04:06:11.394Z,100.00
2023-01-10T04:08:56.732Z,100.00
2023-01-10T04:11:42.278Z,100.00
2023-01-10T04:14:27.888Z,100.00
2023-01-10T04:17:14.633Z,100.00
2023-01-10T04:19:59.783Z,100.00
2023-01-10T04:22:45.630Z,100.00
2023-01-10T04:25:31.023Z,100.00
2023-01-10T04:28:16.210Z,100.00
2023-01-10T04:31:01.921Z,100.00
2023-01-10T04:33:46.925Z,100.00
2023-01-10T04:36:31.808Z,100.00
2023-01-10T04:39:17.241Z,100.00
2023-01-10T04:42:02.304Z,100.00
2023-01-10T04:44:47.647Z,100.00
2023-01-10T04:47:32.996Z,100.00
2023-01-10T04:50:18.526Z,100.00
2023-01-10T04:53:03.903Z,100.00
2023-01-10T04:55:49.394Z,100.00
2023-01-10T04:58:38.294Z,100.00
2023-01-10T05:01:25.100Z,100.00
2023-01-10T05:04:10.397Z,100.00
2023-01-10T05:06:55.765Z,100.00
2023-01-10T05:09:41.094Z,100.00
2023-01-10T05:12:26.351Z,100.00
2023-01-10T05:15:11.701Z,100.00
2023-01-10T05:18:00.997Z,100.00
2023-01-10T05:20:45.825Z,100.00
2023-01-10T05:23:32.083Z,100.00
2023-01-10T05:26:21.831Z,100.00
2023-01-10T05:29:07.133Z,100.00
2023-01-10T05:31:52.729Z,100.00
2023-01-10T05:34:37.799Z,100.00
2023-01-10T05:37:23.227Z,100.00
2023-01-10T05:40:10.542Z,100.00
2023-01-10T05:42:55.458Z,100.00
2023-01-10T05:45:42.180Z,100.00
2023-01-10T05:48:27.611Z,100.00
2023-01-10T05:51:12.718Z,100.00
2023-01-10T05:53:58.111Z,100.00
2023-01-10T05:56:43.385Z,100.00
2023-01-10T05:59:28.934Z,100.00
2023-01-10T06:02:14.301Z,100.00
2023-01-10T06:04:59.745Z,100.00
2023-01-10T06:07:44.423Z,100.00
2023-01-10T06:10:29.484Z,100.00
2023-01-10T06:13:15.171Z,100.00
2023-01-10T06:16:00.389Z,100.00
2023-01-10T06:18:45.789Z,100.00
2023-01-10T06:21:30.870Z,100.00
2023-01-10T06:24:16.152Z,100.00
2023-01-10T06:27:01.499Z,100.00
2023-01-10T06:29:46.953Z,100.00
2023-01-10T06:32:32.241Z,100.00
2023-01-10T06:35:17.682Z,100.00
2023-01-10T06:38:03.455Z,100.00
2023-01-10T06:40:48.522Z,100.00
2023-01-10T06:43:33.995Z,100.00
2023-01-10T06:46:20.171Z,100.00
2023-01-10T06:49:05.578Z,100.00
2023-01-10T06:51:50.789Z,100.00
2023-01-10T06:54:36.112Z,100.00
2023-01-10T06:57:20.956Z,100.00
2023-01-10T07:00:09.594Z,100.00
2023-01-10T07:02:58.744Z,100.00
2023-01-10T07:05:44.225Z,100.00
2023-01-10T07:08:29.624Z,100.00
2023-01-10T07:11:16.013Z,100.00
2023-01-10T07:14:01.970Z,100.00
2023-01-10T07:16:46.905Z,100.00
2023-01-10T07:19:32.383Z,100.00
2023-01-10T07:22:17.940Z,100.00
2023-01-10T07:25:03.861Z,100.00
2023-01-10T07:27:49.429Z,100.00
2023-01-10T07:30:34.777Z,100.00
2023-01-10T07:33:20.101Z,100.00
2023-01-10T07:36:06.378Z,100.00
2023-01-10T07:38:51.567Z,100.00
2023-01-10T07:41:36.674Z,100.00
2023-01-10T07:44:21.564Z,100.00
2023-01-10T07:47:06.807Z,100.00
2023-01-10T07:49:52.425Z,100.00
2023-01-10T07:52:37.809Z,100.00
2023-01-10T07:55:23.217Z,100.00
2023-01-10T07:58:08.530Z,100.00
2023-01-10T08:00:58.488Z,100.00
2023-01-10T08:03:43.841Z,100.00
2023-01-10T08:06:28.938Z,100.00
2023-01-10T08:09:14.334Z,100.00
2023-01-10T08:11:59.748Z,100.00
2023-01-10T08:14:45.061Z,100.00
2023-01-10T08:17:35.795Z,100.00
2023-01-10T08:20:21.293Z,100.00
2023-01-10T08:23:06.560Z,100.00
2023-01-10T08:25:52.048Z,100.00
2023-01-10T08:28:37.336Z,100.00
2023-01-10T08:31:22.534Z,100.00
2023-01-10T08:34:07.854Z,100.00
2023-01-10T08:36:54.457Z,100.00
2023-01-10T08:39:39.755Z,100.00
2023-01-10T08:42:24.750Z,100.00
2023-01-10T08:45:10.697Z,100.00
2023-01-10T08:47:56.475Z,100.00
2023-01-10T08:50:41.635Z,100.00
2023-01-10T08:53:26.467Z,100.00
2023-01-10T08:56:11.904Z,100.00
2023-01-10T08:58:57.370Z,100.00
2023-01-10T09:01:42.848Z,100.00
2023-01-10T09:04:28.191Z,100.00
2023-01-10T09:07:13.648Z,100.00
2023-01-10T09:09:58.911Z,100.00
2023-01-10T09:12:44.348Z,100.00
2023-01-10T09:15:34.688Z,100.00
2023-01-10T09:18:21.391Z,100.00
2023-01-10T09:21:06.807Z,100.00
2023-01-10T09:23:52.307Z,100.00
2023-01-10T09:26:37.556Z,100.00
2023-01-10T09:29:22.452Z,100.00
2023-01-10T09:32:07.918Z,100.00
2023-01-10T09:34:53.459Z,100.00
2023-01-10T09:37:38.807Z,100.00
2023-01-10T09:40:27.305Z,100.00
2023-01-10T09:43:15.314Z,100.00
2023-01-10T09:46:42.272Z,100.00
2023-01-10T09:49:45.798Z,100.00
2023-01-10T09:52:34.589Z,100.00
2023-01-10T09:55:32.292Z,100.00
2023-01-10T09:58:19.263Z,100.00
2023-01-10T10:01:11.166Z,100.00
2023-01-10T10:04:07.412Z,100.00
2023-01-10T10:06:53.273Z,100.00
2023-01-10T10:09:38.355Z,100.00
2023-01-10T10:12:43.550Z,100.00
2023-01-10T10:16:00.604Z,100.00
2023-01-10T10:19:04.396Z,100.00
2023-01-10T10:22:07.211Z,100.00
2023-01-10T10:25:18.449Z,100.00
2023-01-10T10:28:21.804Z,100.00
2023-01-10T10:31:19.514Z,100.00
2023-01-10T10:34:33.538Z,100.00
2023-01-10T10:37:21.376Z,100.00
2023-01-10T10:40:17.384Z,100.00
2023-01-10T10:43:22.912Z,100.00
2023-01-10T10:46:13.019Z,100.00
2023-01-10T10:49:04.535Z,100.00
2023-01-10T10:51:53.502Z,100.00
2023-01-10T10:54:38.462Z,100.00
2023-01-10T10:57:26.942Z,100.00
2023-01-10T11:00:19.112Z,100.00
2023-01-10T11:03:26.560Z,100.00
2023-01-10T11:06:14.778Z,100.00
2023-01-10T11:09:01.729Z,100.00
2023-01-10T11:11:49.118Z,100.00
2023-01-10T11:14:50.591Z,100.00
2023-01-10T11:17:35.400Z,100.00
2023-01-10T11:20:20.821Z,100.00
2023-01-10T11:23:07.237Z,100.00
2023-01-10T11:25:52.296Z,100.00
2023-01-10T11:28:38.112Z,100.00
2023-01-10T11:31:28.624Z,100.00
2023-01-10T11:34:33.076Z,100.00
2023-01-10T11:37:20.443Z,100.00
2023-01-10T11:40:15.220Z,100.00
2023-01-10T11:43:03.026Z,100.00
2023-01-10T11:45:54.818Z,100.00
2023-01-10T11:49:08.588Z,100.00
2023-01-10T11:51:59.421Z,99.62
2023-01-10T11:54:45.145Z,98.26
2023-01-10T11:57:32.198Z,97.54
2023-01-10T12:00:17.921Z,97.89
2023-01-10T12:03:34.115Z,97.92
2023-01-10T12:06:19.344Z,98.76
2023-01-10T12:09:04.798Z,98.94
2023-01-10T12:12:01.601Z,99.12
2023-01-10T12:14:47.617Z,99.48
2023-01-10T12:17:35.978Z,99.63
2023-01-10T12:20:21.790Z,98.97
2023-01-10T12:23:12.019Z,98.84
2023-01-10T12:26:11.193Z,98.41
2023-01-10T12:28:59.724Z,98.58
2023-01-10T12:31:45.297Z,98.45
2023-01-10T12:34:42.082Z,98.46
2023-01-10T12:37:40.365Z,98.08
2023-01-10T12:40:41.905Z,98.11
2023-01-10T12:43:41.520Z,97.52
2023-01-10T12:47:09.185Z,96.33
2023-01-10T12:50:04.108Z,95.97
2023-01-10T12:53:10.805Z,95.30
2023-01-10T12:55:59.021Z,95.62
2023-01-10T12:58:49.606Z,95.37
2023-01-10T13:01:37.490Z,95.17
2023-01-10T13:04:25.343Z,94.78
2023-01-10T13:07:13.166Z,95.58
2023-01-10T13:10:01.012Z,94.72
2023-01-10T13:13:13.391Z,93.97
2023-01-10T13:16:16.777Z,93.68
2023-01-10T13:19:01.955Z,93.33
2023-01-10T13:21:47.479Z,93.71
2023-01-10T13:24:32.796Z,92.85
2023-01-10T13:27:20.159Z,93.39
2023-01-10T13:30:05.769Z,93.31
2023-01-10T13:32:59.285Z,93.41
2023-01-10T13:35:44.988Z,93.23
2023-01-10T13:38:36.516Z,93.07
2023-01-10T13:41:22.413Z,93.23
2023-01-10T13:44:15.023Z,92.96
2023-01-10T13:47:00.249Z,92.60
2023-01-10T13:49:45.462Z,91.95
2023-01-10T13:52:32.599Z,92.16
2023-01-10T13:55:40.566Z,91.66
2023-01-10T13:58:25.389Z,91.48
2023-01-10T14:01:36.524Z,91.47
2023-01-10T14:04:47.813Z,90.85
2023-01-10T14:07:42.714Z,90.61
2023-01-10T14:10:31.267Z,91.10
2023-01-10T14:13:22.970Z,91.46
2023-01-10T14:16:34.166Z,91.36
2023-01-10T14:19:31.221Z,91.30
2023-01-10T14:22:29.719Z,91.46
2023-01-10T14:25:20.695Z,90.75
2023-01-10T14:28:20.604Z,90.34
2023-01-10T14:31:24.031Z,90.94
2023-01-10T14:34:16.622Z,91.25
2023-01-10T14:37:16.568Z,91.28
2023-01-10T14:40:06.305Z,91.53
2023-01-10T14:42:52.927Z,91.66
2023-01-10T14:46:05.236Z,91.31
2023-01-10T14:48:53.041Z,91.28
2023-01-10T14:51:38.129Z,91.55
2023-01-10T14:54:22.997Z,91.31
2023-01-10T14:57:19.542Z,91.37
2023-01-10T15:00:17.601Z,91.18
2023-01-10T15:03:04.261Z,90.78
2023-01-10T15:05:52.313Z,91.24
2023-01-10T15:08:37.389Z,90.99
2023-01-10T15:11:24.127Z,91.21
2023-01-10T15:14:10.199Z,91.30
2023-01-10T15:16:58.840Z,91.17
2023-01-10T15:19:44.694Z,91.08
2023-01-10T15:22:33.271Z,91.00
2023-01-10T15:25:18.421Z,90.78
2023-01-10T15:28:18.322Z,90.40
2023-01-10T15:31:05.401Z,90.30
2023-01-10T15:33:50.601Z,89.80
2023-01-10T15:36:36.200Z,90.02
2023-01-10T15:39:28.784Z,90.10
2023-01-10T15:42:14.544Z,89.57
2023-01-10T15:45:37.276Z,89.78
2023-01-10T15:48:28.700Z,89.55
2023-01-10T15:51:35.042Z,89.14
2023-01-10T15:54:20.179Z,89.18
2023-01-10T15:57:19.000Z,89.28
2023-01-10T16:00:04.651Z,89.36
2023-01-10T16:02:50.453Z,89.20
2023-01-10T16:05:35.912Z,89.13
2023-01-10T16:08:24.394Z,89.08
2023-01-10T16:11:19.697Z,88.81
2023-01-10T16:14:04.798Z,88.05
2023-01-10T16:16:50.188Z,88.25
2023-01-10T16:19:35.438Z,88.27
2023-01-10T16:22:20.440Z,87.67
2023-01-10T16:25:05.951Z,87.53
2023-01-10T16:27:51.522Z,87.54
2023-01-10T16:30:36.815Z,87.31
2023-01-10T16:33:23.890Z,87.34
2023-01-10T16:36:17.862Z,87.16
2023-01-10T16:39:07.320Z,87.34
2023-01-10T16:41:52.588Z,87.41
2023-01-10T16:44:37.894Z,87.15
2023-01-10T16:47:22.901Z,87.04
2023-01-10T16:50:09.809Z,87.40
2023-01-10T16:52:54.979Z,87.51
2023-01-10T16:55:43.747Z,87.26
2023-01-10T16:58:28.869Z,87.07
2023-01-10T17:01:17.009Z,87.17
2023-01-10T17:04:02.201Z,87.15
2023-01-10T17:06:47.594Z,87.00
2023-01-10T17:09:32.727Z,86.83
2023-01-10T17:12:18.702Z,86.85
2023-01-10T17:15:06.620Z,87.16
2023-01-10T17:17:51.780Z,87.08
2023-01-10T17:20:36.798Z,87.11
2023-01-10T17:23:22.473Z,86.95
2023-01-10T17:26:08.055Z,86.88
2023-01-10T17:28:53.270Z,86.98
2023-01-10T17:31:38.258Z,86.69
2023-01-10T17:34:23.473Z,86.94
2023-01-10T17:37:08.851Z,87.41
2023-01-10T17:39:54.167Z,87.21
2023-01-10T17:42:39.606Z,86.99
2023-01-10T17:45:24.968Z,86.95
2023-01-10T17:48:11.307Z,87.41
2023-01-10T17:50:59.519Z,87.18
2023-01-10T17:53:44.857Z,86.95
2023-01-10T17:56:30.137Z,87.10
2023-01-10T17:59:15.537Z,87.40
2023-01-10T18:02:01.021Z,86.68
2023-01-10T18:04:46.234Z,87.51
2023-01-10T18:07:31.547Z,86.89
2023-01-10T18:10:16.884Z,86.91
2023-01-10T18:13:03.439Z,86.92
2023-01-10T18:15:49.774Z,87.16
2023-01-10T18:18:34.937Z,87.10
2023-01-10T18:21:20.247Z,87.19
2023-01-10T18:24:05.963Z,87.70
2023-01-10T18:26:51.041Z,87.56
2023-01-10T18:29:36.337Z,87.46
2023-01-10T18:32:23.657Z,88.11
2023-01-10T18:35:09.047Z,87.96
2023-01-10T18:37:54.138Z,88.56
2023-01-10T18:40:40.536Z,89.27
2023-01-10T18:43:25.532Z,89.67
2023-01-10T18:46:13.881Z,90.33
2023-01-10T18:48:58.938Z,91.34
2023-01-10T18:51:44.286Z,92.81
2023-01-10T18:54:29.704Z,93.80
2023-01-10T18:57:14.986Z,95.61
2023-01-10T19:00:00.371Z,96.11
2023-01-10T19:02:46.429Z,97.30
2023-01-10T19:05:31.756Z,98.30
2023-01-10T19:08:17.588Z,99.38
2023-01-10T19:11:13.404Z,99.79
2023-01-10T19:14:00.203Z,100.00
2023-01-10T19:16:45.477Z,100.00
2023-01-10T19:19:31.113Z,100.00
2023-01-10T19:22:16.767Z,100.00
2023-01-10T19:25:02.168Z,100.00
2023-01-10T19:27:47.556Z,100.00
2023-01-10T19:30:32.952Z,100.00
2023-01-10T19:33:18.618Z,100.00
2023-01-10T19:36:05.912Z,100.00
2023-01-10T19:38:58.365Z,100.00
2023-01-10T19:41:43.555Z,100.00
2023-01-10T19:44:28.915Z,100.00
2023-01-10T19:47:14.416Z,100.00
2023-01-10T19:49:59.737Z,100.00
2023-01-10T19:52:45.365Z,100.00
2023-01-10T19:55:30.755Z,100.00
2023-01-10T19:58:16.171Z,100.00
2023-01-10T20:01:19.123Z,100.00
2023-01-10T20:04:04.555Z,100.00
2023-01-10T20:06:49.792Z,100.00
2023-01-10T20:09:34.792Z,100.00
2023-01-10T20:12:20.106Z,100.00
2023-01-10T20:15:06.000Z,100.00
2023-01-10T20:17:51.332Z,100.00
2023-01-10T20:20:36.623Z,100.00
2023-01-10T20:23:22.273Z,100.00
2023-01-10T20:26:15.231Z,100.00
2023-01-10T20:29:02.355Z,100.00
2023-01-10T20:31:49.046Z,100.00
2023-01-10T20:34:34.071Z,100.00
2023-01-10T20:37:19.474Z,100.00
2023-01-10T20:40:04.980Z,100.00
2023-01-10T20:42:50.314Z,100.00
2023-01-10T20:45:35.671Z,100.00
2023-01-10T20:48:21.447Z,100.00
2023-01-10T20:51:07.622Z,100.00
2023-01-10T20:53:53.001Z,100.00
2023-01-10T20:56:38.551Z,100.00
2023-01-10T20:59:25.900Z,100.00
2023-01-10T21:02:12.014Z,100.00
2023-01-10T21:04:57.007Z,100.00
2023-01-10T21:07:41.742Z,100.00
2023-01-10T21:10:26.995Z,100.00
2023-01-10T21:13:12.994Z,100.00
2023-01-10T21:15:58.257Z,100.00
2023-01-10T21:18:43.708Z,100.00
2023-01-10T21:21:28.522Z,100.00
2023-01-10T21:24:13.653Z,100.00
2023-01-10T21:26:58.933Z,100.00
2023-01-10T21:29:44.282Z,100.00
2023-01-10T21:32:29.389Z,100.00
2023-01-10T21:35:14.837Z,100.00
2023-01-10T21:38:00.142Z,100.00
2023-01-10T21:40:45.094Z,100.00
2023-01-10T21:43:31.703Z,100.00
2023-01-10T21:46:17.076Z,100.00
2023-01-10T21:49:03.214Z,100.00
2023-01-10T21:51:48.665Z,100.00
2023-01-10T21:54:33.715Z,100.00
2023-01-10T21:57:19.048Z,100.00
2023-01-10T22:00:04.883Z,100.00
2023-01-10T22:02:49.890Z,100.00
2023-01-10T22:05:35.203Z,100.00
2023-01-10T22:08:19.984Z,100.00
2023-01-10T22:11:04.930Z,100.00
2023-01-10T22:13:50.670Z,100.00
2023-01-10T22:16:35.760Z,100.00
2023-01-10T22:19:21.218Z,100.00
2023-01-10T22:22:07.038Z,100.00
2023-01-10T22:24:52.047Z,100.00
2023-01-10T22:27:37.260Z,100.00
2023-01-10T22:30:22.148Z,100.00
2023-01-10T22:33:07.518Z,100.00
2023-01-10T22:35:52.325Z,100.00
2023-01-10T22:38:37.271Z,100.00
2023-01-10T22:41:23.890Z,100.00
2023-01-10T22:44:17.794Z,100.00
2023-01-10T22:47:02.940Z,100.00
2023-01-10T22:49:48.340Z,100.00
2023-01-10T22:52:33.135Z,100.00
2023-01-10T22:55:18.197Z,100.00
2023-01-10T22:58:03.402Z,100.00
2023-01-10T23:00:49.086Z,100.00
2023-01-10T23:03:34.510Z,100.00
2023-01-10T23:06:20.454Z,100.00
2023-01-10T23:09:05.913Z,100.00
2023-01-10T23:11:50.959Z,100.00
2023-01-10T23:14:35.842Z,100.00
2023-01-10T23:17:21.278Z,100.00
2023-01-10T23:20:07.001Z,100.00
2023-01-10T23:22:52.313Z,100.00
2023-01-10T23:25:37.691Z,100.00
2023-01-10T23:28:35.639Z,100.00
2023-01-10T23:31:22.800Z,100.00
2023-01-10T23:34:08.313Z,100.00
2023-01-10T23:36:53.305Z,100.00
2023-01-10T23:39:38.388Z,100.00
2023-01-10T23:42:23.213Z,100.00
2023-01-10T23:45:09.310Z,100.00
2023-01-10T23:47:54.505Z,100.00
2023-01-10T23:50:39.354Z,100.00
2023-01-10T23:53:25.110Z,100.00
2023-01-10T23:56:13.185Z,100.00
2023-01-10T23:58:58.499Z,100.00
